Time;durP1;ratioP1;P1;durP2;ratioP2;P2;SDS_P1;SDS_P2;PMS_P1;PMS_P2;Temp;Humidity;BMP_temperature;BMP_pressure;BME280_temperature;BME280_humidity;BME280_pressure;Samples;Min_cycle;Max_cycle;Signal;HPM_P1;HPM_P2
2023/07/15 00:01:23;;;;;;;6.47;3.90;;;;;;;26.59;57.59;97197.06;4989490;28;20286;-86
2023/07/15 00:04:46;;;;;;;7.70;4.50;;;;;;;26.70;57.16;97196.75;5005488;28;20200;-86
2023/07/15 00:08:09;;;;;;;9.73;4.60;;;;;;;26.76;56.88;97204.09;5006680;28;20661;-86
2023/07/15 00:10:51;;;;;;;11.43;5.27;;;;;;;26.25;57.32;97148.59;5006776;28;20195;-84
2023/07/15 00:13:58;;;;;;;9.40;4.70;;;;;;;26.27;57.90;97176.66;4974373;28;20243;-83
2023/07/15 00:17:38;;;;;;;6.33;4.30;;;;;;;26.47;57.12;97164.72;4985312;28;20209;-82
2023/07/15 00:20:59;;;;;;;5.63;4.10;;;;;;;26.01;58.30;97202.41;5019159;28;20215;-85
2023/07/15 00:24:21;;;;;;;12.00;4.73;;;;;;;25.74;59.37;97195.53;5030590;28;20630;-84
2023/07/15 00:27:41;;;;;;;4.87;3.70;;;;;;;25.55;59.33;97176.41;5016187;28;20209;-82
2023/07/15 00:31:05;;;;;;;9.30;4.70;;;;;;;25.53;59.55;97204.91;5001670;28;20202;-83
2023/07/15 00:38:13;;;;;;;5.63;3.83;;;;;;;25.89;58.70;97205.53;4994761;28;20290;-81
2023/07/15 00:41:34;;;;;;;8.47;5.03;;;;;;;26.08;57.66;97211.44;5003738;28;20229;-85
2023/07/15 00:44:16;;;;;;;11.80;4.77;;;;;;;26.17;57.86;97217.63;5014077;28;20295;-82
2023/07/15 00:47:45;;;;;;;8.40;4.60;;;;;;;26.25;58.01;97218.47;5037239;28;20244;-81
2023/07/15 00:51:10;;;;;;;8.80;5.13;;;;;;;26.18;57.80;97220.09;5052582;28;20212;-81
2023/07/15 00:54:49;;;;;;;7.37;5.03;;;;;;;26.04;57.83;97211.91;5029758;28;20233;-82
2023/07/15 00:58:12;;;;;;;8.53;4.40;;;;;;;26.07;58.67;97222.19;5032967;28;20194;-85
2023/07/15 01:01:34;;;;;;;6.73;5.03;;;;;;;25.75;59.84;97217.59;5032780;28;20289;-88
2023/07/15 01:04:57;;;;;;;6.23;4.67;;;;;;;25.97;59.08;97221.47;5019268;28;20288;-88
2023/07/15 01:08:20;;;;;;;5.17;4.00;;;;;;;26.15;57.68;97227.56;5037353;28;20205;-83
2023/07/15 01:11:46;;;;;;;9.27;4.97;;;;;;;26.44;58.09;97227.97;5022706;28;20199;-85
2023/07/15 01:15:08;;;;;;;8.63;4.70;;;;;;;25.96;60.25;97219.84;5055177;28;20226;-81
2023/07/15 01:18:32;;;;;;;8.57;5.37;;;;;;;26.11;59.69;97223.56;5017171;28;20224;-80
2023/07/15 01:21:54;;;;;;;7.40;4.93;;;;;;;26.10;59.31;97211.28;5052254;28;20197;-80
2023/07/15 01:25:19;;;;;;;9.23;5.20;;;;;;;26.17;59.39;97231.69;5022095;28;20727;-87
2023/07/15 01:28:40;;;;;;;9.70;5.13;;;;;;;26.11;59.11;97223.56;5032798;28;20310;-85
2023/07/15 01:32:01;;;;;;;7.17;4.50;;;;;;;26.16;58.72;97226.56;5019688;28;20285;-89
2023/07/15 01:35:25;;;;;;;6.73;5.00;;;;;;;26.09;59.38;97220.25;5035813;28;20233;-82
2023/07/15 01:38:46;;;;;;;10.07;5.60;;;;;;;25.67;60.81;97221.06;5032933;28;20343;-88
2023/07/15 01:42:07;;;;;;;7.77;5.10;;;;;;;25.34;60.96;97190.03;5035438;28;20242;-84
2023/07/15 01:45:30;;;;;;;10.80;5.60;;;;;;;25.12;62.08;97213.59;5034436;28;20336;-86
2023/07/15 01:48:59;;;;;;;10.03;4.73;;;;;;;25.24;61.78;97222.94;5035057;28;20268;-85
2023/07/15 01:52:22;;;;;;;8.23;5.00;;;;;;;24.81;61.39;97152.25;5032602;28;20633;-80
2023/07/15 01:55:43;;;;;;;6.87;4.87;;;;;;;25.48;61.49;97239.84;5016485;28;20244;-87
2023/07/15 01:59:07;;;;;;;6.83;5.20;;;;;;;25.65;60.73;97217.72;5022695;28;20205;-84
2023/07/15 02:02:33;;;;;;;8.90;4.83;;;;;;;25.58;60.85;97192.81;5053604;28;20847;-85
2023/07/15 02:05:57;;;;;;;9.00;5.43;;;;;;;25.59;61.36;97204.28;5043068;28;20201;-86
2023/07/15 02:09:24;;;;;;;7.50;5.40;;;;;;;25.57;62.19;97228.31;5057903;28;20204;-81
2023/07/15 02:12:45;;;;;;;7.27;5.93;;;;;;;25.58;62.47;97235.25;5051490;28;20200;-86
2023/07/15 02:16:06;;;;;;;12.67;6.83;;;;;;;24.93;64.32;97235.81;5035246;28;20279;-86
2023/07/15 02:19:30;;;;;;;9.43;6.67;;;;;;;24.87;64.44;97244.38;5016953;28;20205;-82
2023/07/15 02:22:52;;;;;;;7.70;5.83;;;;;;;24.83;64.90;97241.19;5050705;28;20295;-85
2023/07/15 02:26:13;;;;;;;10.40;6.50;;;;;;;24.62;66.11;97242.47;5031608;28;20205;-86
2023/07/15 02:29:38;;;;;;;9.87;7.17;;;;;;;24.35;66.75;97242.53;5029937;28;20204;-83
2023/07/15 02:33:16;;;;;;;8.57;6.63;;;;;;;24.43;66.66;97226.72;5029383;28;20298;-85
2023/07/15 02:36:47;;;;;;;10.27;7.37;;;;;;;24.49;66.64;97247.28;5051432;28;20231;-85
2023/07/15 02:40:33;;;;;;;9.23;7.07;;;;;;;24.46;67.37;97226.44;5049331;28;20701;-85
2023/07/15 02:44:21;;;;;;;15.20;7.83;;;;;;;24.66;66.50;97243.81;5019003;28;20813;-84
2023/07/15 02:47:04;;;;;;;11.10;7.00;;;;;;;24.91;65.86;97232.47;5026141;28;20201;-84
2023/07/15 02:50:17;;;;;;;12.00;7.40;;;;;;;24.83;65.96;97245.66;5012179;28;20559;-85
2023/07/15 02:53:39;;;;;;;9.53;6.97;;;;;;;24.69;66.18;97239.03;5011757;28;20233;-87
2023/07/15 02:57:02;;;;;;;9.90;7.17;;;;;;;24.90;65.84;97249.34;5010649;28;20206;-85
2023/07/15 03:00:23;;;;;;;8.50;6.77;;;;;;;24.94;64.51;97253.34;5026994;28;20204;-85
2023/07/15 03:03:47;;;;;;;15.33;10.57;;;;;;;25.21;64.71;97245.28;5009864;28;20248;-87
2023/07/15 03:07:13;;;;;;;15.47;9.00;;;;;;;25.14;63.84;97232.81;5027592;28;20208;-86
2023/07/15 03:10:39;;;;;;;11.17;7.93;;;;;;;25.41;63.56;97254.72;5009592;28;20291;-87
2023/07/15 03:14:06;;;;;;;14.60;8.70;;;;;;;25.05;64.85;97258.44;5025829;28;20303;-86
2023/07/15 03:17:36;;;;;;;14.23;10.10;;;;;;;25.04;64.74;97260.22;5025738;28;20205;-85
2023/07/15 03:21:02;;;;;;;17.27;11.90;;;;;;;25.33;63.70;97245.84;5008712;28;20706;-83
2023/07/15 03:24:26;;;;;;;12.93;8.00;;;;;;;25.70;62.76;97260.53;5026272;28;20210;-82
2023/07/15 03:27:49;;;;;;;9.20;6.70;;;;;;;25.63;62.44;97262.16;4996814;28;20296;-86
2023/07/15 03:31:10;;;;;;;9.43;7.30;;;;;;;25.66;62.68;97267.13;5029517;28;20666;-81
2023/07/15 03:34:37;;;;;;;12.57;7.60;;;;;;;25.53;62.62;97240.19;5009321;28;20324;-88
2023/07/15 03:37:58;;;;;;;10.67;7.63;;;;;;;25.61;63.08;97258.84;5018699;28;20293;-84
2023/07/15 03:41:18;;;;;;;11.97;7.17;;;;;;;25.14;65.03;97244.25;5001558;28;20213;-81
2023/07/15 03:44:45;;;;;;;11.13;7.60;;;;;;;25.26;65.71;97258.91;5017633;28;20209;-82
2023/07/15 03:48:36;;;;;;;9.43;7.27;;;;;;;25.06;65.68;97246.81;5032467;28;20661;-83
2023/07/15 03:51:58;;;;;;;11.30;7.83;;;;;;;25.03;66.44;97265.69;5033001;28;20238;-83
2023/07/15 03:55:19;;;;;;;13.53;8.37;;;;;;;25.50;65.37;97275.00;5011602;28;20708;-85
2023/07/15 03:58:41;;;;;;;10.73;7.83;;;;;;;25.90;63.68;97274.41;4993306;28;20209;-82
2023/07/15 04:02:06;;;;;;;10.40;7.43;;;;;;;26.46;62.09;97281.75;5008695;28;20209;-83
2023/07/15 04:05:27;;;;;;;11.73;7.17;;;;;;;26.81;60.34;97286.81;5008525;28;20593;-84
2023/07/15 04:08:54;;;;;;;9.23;6.80;;;;;;;26.96;59.44;97289.66;5026116;28;20232;-88
2023/07/15 04:12:20;;;;;;;10.23;7.23;;;;;;;26.96;59.34;97287.84;5011247;28;20217;-87
2023/07/15 04:15:42;;;;;;;8.83;7.67;;;;;;;27.21;58.70;97294.81;4993895;28;20211;-86
2023/07/15 04:19:02;;;;;;;13.90;7.57;;;;;;;27.24;58.81;97304.31;5010621;28;20229;-86
2023/07/15 04:22:26;;;;;;;13.17;7.63;;;;;;;27.37;57.42;97283.34;4998865;28;20305;-88
2023/07/15 04:25:48;;;;;;;9.67;7.93;;;;;;;27.13;58.71;97292.16;4995425;28;20629;-86
2023/07/15 04:29:12;;;;;;;10.50;7.73;;;;;;;27.86;58.34;97300.06;5014711;28;20206;-83
2023/07/15 04:32:45;;;;;;;10.17;7.87;;;;;;;28.15;57.39;97305.66;5030352;28;20195;-83
2023/07/15 04:36:10;;;;;;;10.93;7.70;;;;;;;27.82;57.94;97269.47;4997531;28;20214;-85
2023/07/15 04:39:34;;;;;;;10.90;8.10;;;;;;;27.92;57.93;97273.59;5014301;28;20199;-85
2023/07/15 04:42:55;;;;;;;13.97;8.23;;;;;;;28.15;57.54;97308.31;5026654;28;20230;-80
2023/07/15 04:46:28;;;;;;;11.77;8.97;;;;;;;28.07;57.55;97318.97;5052827;28;20217;-87
2023/07/15 04:49:51;;;;;;;10.70;8.20;;;;;;;27.87;57.84;97313.19;5032846;28;20202;-84
2023/07/15 04:53:16;;;;;;;11.70;8.83;;;;;;;28.14;56.85;97317.31;5049062;28;20198;-85
2023/07/15 04:56:39;;;;;;;11.57;7.83;;;;;;;28.44;56.20;97311.16;5030034;28;20236;-84
2023/07/15 05:00:02;;;;;;;13.40;8.57;;;;;;;28.85;55.54;97315.28;5030101;28;20541;-81
2023/07/15 05:03:24;;;;;;;9.80;7.60;;;;;;;29.07;53.79;97304.81;5016325;28;20240;-85
2023/07/15 05:06:46;;;;;;;11.53;7.83;;;;;;;29.42;52.89;97322.88;5032058;28;20225;-81
2023/07/15 05:10:07;;;;;;;9.63;7.77;;;;;;;29.11;53.96;97319.44;5047928;28;20206;-84
2023/07/15 05:13:39;;;;;;;11.63;7.63;;;;;;;29.07;54.32;97313.66;5051392;28;20199;-82
2023/07/15 05:17:02;;;;;;;12.00;7.57;;;;;;;29.94;52.16;97322.91;5030672;28;20247;-81
2023/07/15 05:20:24;;;;;;;11.67;8.33;;;;;;;30.04;51.01;97324.28;5016334;28;20197;-81
2023/07/15 05:23:57;;;;;;;11.80;7.93;;;;;;;29.96;50.82;97329.75;5048136;28;20198;-83
2023/07/15 05:27:20;;;;;;;13.47;8.33;;;;;;;29.99;52.09;97328.50;5029171;28;20291;-82
2023/07/15 05:30:51;;;;;;;14.13;9.40;;;;;;;29.92;53.00;97325.78;5029004;28;20204;-83
2023/07/15 05:34:19;;;;;;;13.93;9.70;;;;;;;29.79;53.38;97322.91;5016048;28;20229;-82
2023/07/15 06:49:17;;;;;;;11.90;6.07;;;;;;;30.61;47.86;97331.63;5047453;28;20279;-84
2023/07/15 06:57:19;;;;;;;7.87;6.00;;;;;;;30.66;47.89;97318.53;4976225;28;20261;-87
2023/07/15 07:00:39;;;;;;;7.77;5.63;;;;;;;30.81;48.60;97343.41;4990205;28;20195;-87
2023/07/15 07:04:41;;;;;;;10.80;5.60;;;;;;;30.98;46.79;97348.34;4978694;28;20208;-83
2023/07/15 07:08:18;;;;;;;12.10;6.63;;;;;;;30.92;47.41;97348.28;4929511;29;20198;-85
2023/07/15 07:11:54;;;;;;;10.80;6.00;;;;;;;30.80;47.99;97344.41;4918771;29;20205;-85
2023/07/15 07:14:28;;;;;;;11.25;6.55;;;;;;;30.89;48.42;97357.50;4913181;29;20241;-87
2023/07/15 07:17:12;;;;;;;8.80;6.40;;;;;;;30.36;49.50;97341.81;4912197;29;20285;-87
2023/07/15 07:19:56;;;;;;;7.93;5.20;;;;;;;30.81;49.17;97343.41;4909659;29;20243;-87
2023/07/15 07:22:40;;;;;;;6.83;5.40;;;;;;;30.66;48.32;97315.84;4912659;29;20205;-85
2023/07/15 07:26:11;;;;;;;8.73;5.23;;;;;;;30.44;48.73;97331.84;4922210;29;20249;-82
2023/07/15 07:29:08;;;;;;;11.70;7.80;;;;;;;30.33;49.44;97343.03;4930264;28;20207;-84
2023/07/15 07:32:08;;;;;;;8.13;6.67;;;;;;;30.29;49.50;97343.56;4962932;28;20242;-80
2023/07/15 07:35:27;;;;;;;6.67;5.17;;;;;;;30.76;47.30;97337.78;4982999;28;20204;-82
2023/07/15 07:38:09;;;;;;;9.17;5.80;;;;;;;30.50;47.92;97311.56;4935050;28;20200;-79
2023/07/15 07:41:44;;;;;;;8.07;5.33;;;;;;;30.45;48.02;97338.88;4969165;28;20212;-83
2023/07/15 07:45:09;;;;;;;7.87;4.60;;;;;;;30.18;49.13;97339.50;4936438;28;20263;-80
2023/07/15 07:48:34;;;;;;;7.70;5.20;;;;;;;30.69;47.46;97339.53;4950031;28;20230;-83
2023/07/15 07:51:54;;;;;;;9.53;5.67;;;;;;;30.92;46.99;97316.16;4947913;28;20268;-84
2023/07/15 07:55:18;;;;;;;9.87;6.13;;;;;;;31.41;46.78;97332.34;4920261;28;20252;-83
2023/07/15 07:58:41;;;;;;;7.20;5.30;;;;;;;31.58;46.70;97331.84;4990594;28;20297;-81
2023/07/15 08:02:03;;;;;;;5.97;4.53;;;;;;;31.37;46.68;97286.31;4997954;28;20202;-81
2023/07/15 08:05:57;;;;;;;6.15;4.63;;;;;;;31.60;45.81;97276.25;4995464;28;20198;-82
2023/07/15 08:09:26;;;;;;;10.02;8.07;;;;;;;31.66;44.87;97334.38;4997269;28;20261;-82
2023/07/15 08:12:48;;;;;;;14.95;11.93;;;;;;;31.69;45.09;97328.66;5010523;28;20672;-82
2023/07/15 08:16:11;;;;;;;7.82;4.60;;;;;;;31.37;44.75;97334.50;5027937;28;20679;-80
2023/07/15 08:19:32;;;;;;;6.57;4.03;;;;;;;30.95;45.13;97331.84;4996799;28;20203;-84
2023/07/15 08:22:56;;;;;;;6.07;4.22;;;;;;;31.09;44.99;97336.31;4998372;28;20222;-84
2023/07/15 08:26:21;;;;;;;6.80;4.03;;;;;;;30.51;47.10;97347.97;5011934;28;20213;-83
2023/07/15 08:29:47;;;;;;;8.33;5.23;;;;;;;30.70;46.22;97331.34;5029184;28;20206;-83
2023/07/15 08:33:11;;;;;;;9.37;5.23;;;;;;;30.74;43.73;97334.47;5010880;28;20260;-83
2023/07/15 08:36:37;;;;;;;5.23;4.00;;;;;;;30.58;44.84;97321.31;5010533;28;20205;-85
2023/07/15 08:39:58;;;;;;;9.43;4.20;;;;;;;30.02;46.89;97320.97;5027529;28;20198;-82
2023/07/15 08:43:45;;;;;;;9.93;5.57;;;;;;;30.64;45.13;97317.88;5004430;28;20219;-84
2023/07/15 08:47:11;;;;;;;6.13;4.13;;;;;;;30.85;45.21;97321.44;5029091;28;20190;-82
2023/07/15 08:50:32;;;;;;;8.80;4.50;;;;;;;30.42;46.56;97307.16;5009704;28;20666;-84
2023/07/15 08:54:05;;;;;;;7.22;5.65;;;;;;;30.71;46.23;97292.06;5028359;28;20709;-84
2023/07/15 08:57:40;;;;;;;6.63;4.75;;;;;;;31.18;46.13;97321.81;5027979;28;20209;-83
2023/07/15 09:01:02;;;;;;;9.32;4.95;;;;;;;31.26;45.75;97305.59;5026474;28;20598;-86
2023/07/15 09:04:30;;;;;;;6.57;4.38;;;;;;;31.52;44.80;97329.13;5028520;28;20554;-82
2023/07/15 09:07:53;;;;;;;9.45;4.50;;;;;;;30.84;46.16;97321.59;5019076;28;20683;-82
2023/07/15 09:11:15;;;;;;;5.13;4.05;;;;;;;31.11;45.52;97304.84;4995680;28;20206;-82
2023/07/15 09:15:01;;;;;;;11.07;4.22;;;;;;;31.38;44.66;97313.94;5027234;28;20234;-82
2023/07/15 09:18:41;;;;;;;6.10;4.55;;;;;;;31.52;43.68;97326.44;5013635;28;20198;-83
2023/07/15 09:22:11;;;;;;;6.67;4.27;;;;;;;30.68;45.96;97327.19;5027023;28;20285;-84
2023/07/15 09:25:36;;;;;;;8.27;4.47;;;;;;;30.76;46.61;97319.88;5042990;28;20209;-85
2023/07/15 09:28:58;;;;;;;8.63;4.70;;;;;;;30.74;46.43;97318.41;5026287;28;20591;-82
2023/07/15 09:32:23;;;;;;;11.17;4.37;;;;;;;31.50;45.39;97310.56;5025912;28;20206;-83
2023/07/15 09:35:45;;;;;;;9.60;4.22;;;;;;;31.46;44.87;97306.63;5026431;28;20257;-82
2023/07/15 09:39:11;;;;;;;6.80;4.57;;;;;;;31.30;43.87;97307.69;5009175;28;20254;-80
2023/07/15 09:42:23;;;;;;;8.82;4.75;;;;;;;31.75;43.97;97321.66;4979743;28;20254;-83
2023/07/15 09:45:03;;;;;;;7.72;5.15;;;;;;;31.48;45.04;97317.97;5029994;28;20248;-81
2023/07/15 09:47:35;;;;;;;7.70;4.70;;;;;;;31.47;43.63;97312.81;5031986;28;20237;-83
2023/07/15 09:50:20;;;;;;;7.18;4.07;;;;;;;31.74;43.51;97311.97;5045254;28;20216;-85
2023/07/15 09:53:04;;;;;;;5.47;4.07;;;;;;;31.51;43.79;97277.41;5004399;28;20293;-82
2023/07/15 09:55:54;;;;;;;10.52;4.50;;;;;;;31.55;43.28;97313.47;5013160;28;20289;-84
2023/07/15 09:58:39;;;;;;;4.88;4.05;;;;;;;31.84;42.37;97310.59;5009032;28;20281;-81
2023/07/15 10:01:43;;;;;;;6.72;4.50;;;;;;;32.11;42.11;97295.53;5019882;28;20293;-82
2023/07/15 10:05:05;;;;;;;10.15;5.32;;;;;;;32.40;40.95;97303.31;5048758;28;20221;-82
2023/07/15 10:07:52;;;;;;;10.73;5.15;;;;;;;32.13;41.23;97277.41;5028731;28;20709;-85
2023/07/15 10:10:46;;;;;;;7.45;4.68;;;;;;;32.60;40.66;97304.22;4997605;28;20210;-84
2023/07/15 10:13:35;;;;;;;9.68;5.13;;;;;;;32.21;42.22;97261.16;4997666;28;20240;-84
2023/07/15 10:16:21;;;;;;;7.82;5.55;;;;;;;32.34;41.79;97258.53;5010640;28;20257;-85
2023/07/15 10:19:04;;;;;;;8.38;5.63;;;;;;;32.44;41.42;97293.84;5028638;28;20214;-87
2023/07/15 10:22:29;;;;;;;9.68;5.65;;;;;;;32.73;41.92;97298.91;4995153;28;20211;-81
2023/07/15 10:25:52;;;;;;;13.55;5.50;;;;;;;32.69;41.95;97292.31;5008819;28;20210;-84
2023/07/15 10:29:25;;;;;;;6.65;5.47;;;;;;;32.25;40.83;97280.34;4992356;28;20199;-84
2023/07/15 10:33:03;;;;;;;8.93;6.45;;;;;;;32.58;40.83;97273.28;5009005;28;20285;-85
2023/07/15 10:36:29;;;;;;;8.43;5.75;;;;;;;33.13;40.07;97281.06;4994737;28;20914;-83
2023/07/15 10:39:22;;;;;;;8.55;5.88;;;;;;;32.81;40.31;97268.38;4995325;28;20293;-85
2023/07/15 10:42:15;;;;;;;8.02;5.60;;;;;;;32.84;40.57;97287.59;4992169;28;20245;-83
2023/07/15 10:44:56;;;;;;;8.23;5.88;;;;;;;32.39;41.97;97268.66;5011206;28;20194;-80
2023/07/15 10:47:30;;;;;;;11.10;6.68;;;;;;;32.47;41.47;97252.41;5047997;28;20210;-83
2023/07/15 10:50:07;;;;;;;8.57;6.30;;;;;;;32.30;41.93;97245.72;5053827;28;20194;-86
2023/07/15 10:53:17;;;;;;;7.88;5.95;;;;;;;32.07;42.02;97275.50;5014859;28;20213;-84
2023/07/15 10:56:24;;;;;;;8.50;7.05;;;;;;;31.74;43.26;97261.91;5036020;28;20205;-84
2023/07/15 10:59:51;;;;;;;10.23;7.93;;;;;;;32.07;43.44;97271.00;5026154;28;20206;-86
2023/07/15 11:03:12;;;;;;;9.90;7.45;;;;;;;32.51;41.84;97246.44;5014100;28;20210;-84
2023/07/15 11:06:34;;;;;;;9.57;7.03;;;;;;;32.94;41.08;97260.34;5011199;28;20669;-83
2023/07/15 11:09:56;;;;;;;10.77;6.88;;;;;;;32.74;41.91;97254.13;5027091;28;20259;-82
2023/07/15 11:13:18;;;;;;;11.10;7.07;;;;;;;32.61;42.25;97254.94;5009711;28;20209;-83
2023/07/15 11:16:44;;;;;;;11.02;6.88;;;;;;;32.52;42.47;97240.03;5046610;28;20237;-82
2023/07/15 11:20:07;;;;;;;14.63;7.72;;;;;;;32.46;42.76;97246.22;5027852;28;20202;-83
2023/07/15 11:23:29;;;;;;;8.80;7.00;;;;;;;32.58;42.86;97238.44;5016354;28;20220;-84
2023/07/15 11:26:17;;;;;;;9.65;6.10;;;;;;;32.89;42.80;97230.66;5014011;28;20204;-83
2023/07/15 11:28:49;;;;;;;13.77;6.15;;;;;;;32.93;41.93;97220.31;5027610;28;20205;-82
2023/07/15 11:31:26;;;;;;;9.70;6.53;;;;;;;33.36;41.74;97233.16;5044889;28;20665;-85
2023/07/15 11:34:06;;;;;;;11.43;6.50;;;;;;;33.66;40.02;97217.41;5017404;28;20614;-86
2023/07/15 11:37:46;;;;;;;11.27;6.78;;;;;;;33.78;40.23;97223.78;5036814;28;20755;-86
2023/07/15 11:40:47;;;;;;;10.07;6.20;;;;;;;33.78;39.19;97202.28;5018743;28;20205;-84
2023/07/15 11:44:11;;;;;;;13.90;7.20;;;;;;;34.08;39.71;97229.53;5040547;28;20293;-84
2023/07/15 11:47:39;;;;;;;9.43;6.75;;;;;;;34.08;40.31;97229.53;5038059;28;20193;-84
2023/07/15 11:51:04;;;;;;;10.57;7.38;;;;;;;33.78;39.59;97214.94;5043541;28;20673;-84
2023/07/15 11:54:36;;;;;;;14.70;7.20;;;;;;;34.11;40.04;97204.88;5033729;28;20244;-83
2023/07/15 11:58:03;;;;;;;11.23;6.60;;;;;;;34.14;38.89;97221.44;5048806;28;20316;-85
2023/07/15 12:01:24;;;;;;;8.93;6.85;;;;;;;33.93;39.54;97215.47;5028040;28;20202;-84
2023/07/15 12:04:51;;;;;;;11.20;7.40;;;;;;;33.77;39.67;97213.25;5027358;28;20206;-84
2023/07/15 12:08:14;;;;;;;12.13;6.57;;;;;;;33.77;39.24;97214.09;5028512;28;20228;-83
2023/07/15 12:11:38;;;;;;;12.73;6.72;;;;;;;33.95;38.96;97200.78;5030267;28;20198;-82
2023/07/15 12:15:01;;;;;;;14.15;7.53;;;;;;;33.99;38.43;97201.19;5045310;28;20270;-83
2023/07/15 12:18:24;;;;;;;14.75;6.72;;;;;;;33.54;39.43;97176.13;5028283;28;20198;-83
2023/07/15 12:21:47;;;;;;;9.52;6.85;;;;;;;33.13;40.01;97197.00;5014168;28;20604;-83
2023/07/15 12:25:23;;;;;;;9.30;6.32;;;;;;;33.35;39.33;97187.69;5048481;28;20305;-83
2023/07/15 12:29:11;;;;;;;7.18;6.45;;;;;;;33.08;39.60;97194.94;5032058;28;20625;-83
2023/07/15 12:33:09;;;;;;;9.57;6.10;;;;;;;33.43;39.01;97195.53;5050109;28;20205;-85
2023/07/15 12:36:41;;;;;;;9.70;6.55;;;;;;;33.49;38.63;97163.31;5045695;28;20202;-84
2023/07/15 12:40:03;;;;;;;8.63;6.57;;;;;;;33.97;37.89;97181.75;5028671;28;20797;-83
2023/07/15 12:43:26;;;;;;;10.73;6.60;;;;;;;34.32;37.48;97177.69;5019512;28;20226;-82
2023/07/15 12:46:47;;;;;;;10.70;6.40;;;;;;;34.37;37.94;97172.50;5032942;28;20572;-84
2023/07/15 12:50:09;;;;;;;10.40;6.55;;;;;;;34.09;38.12;97180.91;5050181;28;20267;-84
2023/07/15 12:53:38;;;;;;;8.40;6.10;;;;;;;33.81;38.67;97174.19;5050747;28;20593;-84
2023/07/15 12:57:02;;;;;;;8.95;5.93;;;;;;;34.42;37.73;97172.66;5036200;28;20697;-85
2023/07/15 13:00:27;;;;;;;10.55;6.70;;;;;;;34.47;37.27;97180.09;5049986;28;20202;-81
2023/07/15 13:03:49;;;;;;;9.95;6.63;;;;;;;33.63;39.08;97154.16;5015822;28;20204;-82
2023/07/15 13:07:10;;;;;;;10.13;6.68;;;;;;;34.41;37.58;97171.88;5031554;28;20205;-81
2023/07/15 13:10:32;;;;;;;8.60;6.00;;;;;;;34.14;38.28;97166.84;5017875;28;20577;-82
2023/07/15 13:13:19;;;;;;;9.23;6.28;;;;;;;34.07;38.41;97166.84;5030839;28;20482;-83
2023/07/15 13:15:47;;;;;;;7.85;6.25;;;;;;;33.57;39.15;97141.59;5047268;28;20198;-80
2023/07/15 13:18:15;;;;;;;9.23;6.57;;;;;;;33.41;39.41;97130.44;5046779;28;20202;-84
2023/07/15 13:20:53;;;;;;;11.07;8.75;;;;;;;33.58;39.69;97155.84;5034435;28;20220;-81
2023/07/15 13:23:22;;;;;;;12.38;7.03;;;;;;;33.70;39.22;97132.66;5027812;28;20198;-83
2023/07/15 13:25:57;;;;;;;12.63;6.90;;;;;;;33.85;39.25;97152.03;5012351;28;20678;-81
2023/07/15 13:28:25;;;;;;;9.25;6.68;;;;;;;34.05;38.23;97157.34;5028077;28;20202;-83
2023/07/15 13:30:57;;;;;;;10.30;6.72;;;;;;;33.75;38.77;97107.84;5029109;28;20202;-84
2023/07/15 13:33:43;;;;;;;8.93;6.35;;;;;;;34.22;38.72;97155.81;5030561;28;20203;-86
2023/07/15 13:36:39;;;;;;;10.85;6.45;;;;;;;34.21;38.96;97154.19;5027991;28;20213;-85
2023/07/15 13:40:15;;;;;;;8.82;6.90;;;;;;;34.02;38.61;97152.41;5013084;28;20201;-84
2023/07/15 13:43:47;;;;;;;9.80;5.90;;;;;;;34.10;38.44;97165.59;5031355;28;20223;-84
2023/07/15 13:47:11;;;;;;;10.40;6.25;;;;;;;33.64;39.52;97166.59;5028601;28;20198;-84
2023/07/15 13:50:35;;;;;;;10.75;6.45;;;;;;;33.29;39.31;97138.34;5014789;28;20201;-85
2023/07/15 13:53:58;;;;;;;9.00;6.72;;;;;;;33.47;39.45;97137.66;5001853;28;20203;-82
2023/07/15 13:57:21;;;;;;;10.65;7.13;;;;;;;33.29;39.00;97086.47;5013164;28;20217;-87
2023/07/15 14:01:08;;;;;;;9.85;5.72;;;;;;;33.08;40.46;97071.44;4999442;28;20194;-83
2023/07/15 14:04:35;;;;;;;10.45;6.32;;;;;;;33.10;40.94;97131.13;5027592;28;20203;-83
2023/07/15 14:08:02;;;;;;;9.60;6.18;;;;;;;33.33;39.81;97165.59;5027519;28;20194;-82
2023/07/15 14:11:24;;;;;;;9.63;6.10;;;;;;;32.94;40.94;97147.63;4992737;28;20194;-84
2023/07/15 14:14:06;;;;;;;7.70;6.05;;;;;;;33.16;41.10;97149.09;4995681;28;20230;-82
2023/07/15 14:16:34;;;;;;;8.90;6.32;;;;;;;33.46;40.39;97131.47;4993698;28;20202;-86
2023/07/15 14:19:05;;;;;;;9.23;6.40;;;;;;;33.58;39.29;97116.38;5009089;28;20261;-81
2023/07/15 14:22:04;;;;;;;7.68;6.00;;;;;;;33.18;39.15;97098.69;5010441;28;20816;-84
2023/07/15 14:24:45;;;;;;;9.13;5.60;;;;;;;33.73;39.05;97153.75;4997363;28;20205;-84
2023/07/15 14:27:13;;;;;;;12.38;6.45;;;;;;;33.56;39.03;97114.94;4993634;28;20202;-82
2023/07/15 14:29:45;;;;;;;8.35;6.05;;;;;;;33.71;39.92;97112.81;4993692;28;20293;-82
2023/07/15 14:32:22;;;;;;;12.93;5.80;;;;;;;33.78;39.65;97118.97;5009525;28;20221;-82
2023/07/15 14:34:52;;;;;;;7.03;5.75;;;;;;;33.88;38.73;97103.22;4995404;28;20240;-83
2023/07/15 14:37:22;;;;;;;10.13;6.22;;;;;;;33.80;38.82;97111.53;5026687;28;20190;-81
2023/07/15 14:39:50;;;;;;;10.80;5.85;;;;;;;33.74;38.31;97116.97;5027399;28;20277;-80
2023/07/15 14:42:19;;;;;;;11.75;6.40;;;;;;;34.08;38.48;97140.81;5025710;28;20280;-83
2023/07/15 14:44:53;;;;;;;9.75;5.78;;;;;;;34.13;37.52;97132.91;5011204;28;20300;-83
2023/07/15 14:47:21;;;;;;;7.15;5.93;;;;;;;33.99;38.61;97134.84;5027680;28;20206;-83
2023/07/15 14:49:48;;;;;;;8.85;5.82;;;;;;;33.44;39.01;97117.44;4993634;28;20198;-83
2023/07/15 14:52:17;;;;;;;7.45;5.88;;;;;;;33.46;39.41;97123.41;5028305;28;20195;-82
2023/07/15 14:54:45;;;;;;;6.20;5.60;;;;;;;33.23;39.73;97125.75;4995944;28;20234;-83
2023/07/15 14:57:16;;;;;;;10.15;6.88;;;;;;;33.09;40.38;97131.34;5029534;28;20203;-81
2023/07/15 14:59:47;;;;;;;8.65;6.70;;;;;;;32.84;41.13;97109.66;5012354;28;20261;-84
2023/07/15 15:02:56;;;;;;;8.82;6.07;;;;;;;32.48;42.37;97144.91;5011000;28;20191;-83
2023/07/15 15:06:17;;;;;;;9.20;6.10;;;;;;;32.19;43.57;97123.78;5026008;28;20222;-87
2023/07/15 15:09:38;;;;;;;7.53;6.07;;;;;;;32.23;44.37;97132.28;5009030;28;20574;-84
2023/07/15 15:13:00;;;;;;;8.02;6.28;;;;;;;32.19;44.75;97131.84;5009754;28;20202;-78
2023/07/15 15:16:21;;;;;;;10.82;6.35;;;;;;;32.17;44.86;97128.53;5026616;28;20234;-86
2023/07/15 15:19:45;;;;;;;13.70;7.28;;;;;;;32.13;45.35;97126.47;4992774;28;20205;-84
2023/07/15 15:23:28;;;;;;;7.80;6.55;;;;;;;32.21;43.98;97128.97;4999777;28;20198;-84
2023/07/15 15:26:50;;;;;;;8.32;7.25;;;;;;;31.83;45.54;97110.69;5034246;28;20330;-82
2023/07/15 15:30:12;;;;;;;9.70;6.78;;;;;;;32.02;45.01;97126.06;5034619;28;20595;-82
2023/07/15 15:33:34;;;;;;;11.98;6.90;;;;;;;31.93;45.37;97137.97;5010077;28;20320;-84
2023/07/15 15:36:57;;;;;;;9.38;6.80;;;;;;;31.95;45.81;97135.91;5029247;28;20581;-81
2023/07/15 15:39:58;;;;;;;10.90;6.85;;;;;;;32.15;45.74;97133.28;5011763;28;20206;-83
2023/07/15 15:43:21;;;;;;;10.90;6.88;;;;;;;32.23;45.88;97121.56;4994902;28;20250;-82
2023/07/15 15:46:43;;;;;;;14.35;8.15;;;;;;;32.18;46.31;97127.53;5010402;28;20613;-81
2023/07/15 15:50:04;;;;;;;11.95;7.22;;;;;;;32.10;45.88;97141.13;5028114;28;20568;-81
2023/07/15 15:53:25;;;;;;;15.05;7.53;;;;;;;32.11;46.48;97140.06;5027957;28;20203;-82
2023/07/15 15:56:46;;;;;;;9.57;7.57;;;;;;;32.08;46.60;97137.81;5027525;28;20214;-82
2023/07/15 16:00:08;;;;;;;12.32;7.32;;;;;;;32.13;46.49;97134.53;5028642;28;20210;-80
2023/07/15 16:03:32;;;;;;;10.35;6.88;;;;;;;32.06;46.19;97121.94;5026862;28;20241;-82
2023/07/15 16:10:42;;;;;;;11.73;7.03;;;;;;;32.50;47.06;97147.41;5015619;28;20598;-78
2023/07/15 16:14:07;;;;;;;12.15;7.30;;;;;;;32.29;48.33;97142.19;5026672;28;20337;-79
2023/07/15 16:17:29;;;;;;;8.55;6.85;;;;;;;32.07;48.91;97149.53;5026772;28;20237;-78
2023/07/15 16:20:50;;;;;;;9.60;7.63;;;;;;;31.81;49.67;97144.06;5029333;28;20284;-79
2023/07/15 16:24:12;;;;;;;10.48;7.43;;;;;;;31.72;49.38;97146.09;5013288;28;20199;-78
2023/07/15 16:27:36;;;;;;;14.63;8.32;;;;;;;31.71;49.40;97143.63;5030240;28;20191;-86
2023/07/15 16:30:57;;;;;;;11.48;7.55;;;;;;;31.81;49.16;97139.53;5042144;28;20285;-78
2023/07/15 16:34:21;;;;;;;11.75;7.50;;;;;;;31.92;49.38;97135.47;5030704;28;20661;-80
2023/07/15 16:37:47;;;;;;;12.73;8.05;;;;;;;32.11;47.54;97136.59;5014946;28;20198;-81